Time;durP1;ratioP1;P1;durP2;ratioP2;P2;SDS_P1;SDS_P2;PMS_P1;PMS_P2;Temp;Humidity;BMP_temperature;BMP_pressure;BME280_temperature;BME280_humidity;BME280_pressure;Samples;Min_cycle;Max_cycle;Signal;HPM_P1;HPM_P2
2021/12/07 00:01:59;;;;;;;54.33;25.07;;;;;;;6.24;100.00;99908.13;5054170;28;20194;-78
2021/12/07 00:04:25;;;;;;;56.20;24.60;;;;;;;6.30;100.00;99917.97;5053667;28;20215;-79
2021/12/07 00:06:51;;;;;;;59.95;24.25;;;;;;;6.26;100.00;99916.78;5054403;28;20172;-79
2021/12/07 00:09:17;;;;;;;59.13;24.45;;;;;;;6.35;100.00;99901.50;5052759;28;20678;-79
2021/12/07 00:11:45;;;;;;;58.50;26.47;;;;;;;6.35;100.00;99910.00;5054300;28;20237;-78
2021/12/07 00:14:13;;;;;;;60.33;26.92;;;;;;;6.23;100.00;99901.22;5053967;28;20285;-77
2021/12/07 00:16:40;;;;;;;61.10;24.90;;;;;;;6.14;100.00;99910.53;5053682;28;20187;-78
2021/12/07 00:19:06;;;;;;;57.95;25.88;;;;;;;6.06;100.00;99912.31;5053580;28;20178;-79
2021/12/07 00:21:32;;;;;;;56.77;22.87;;;;;;;5.96;100.00;99889.31;5056705;28;20266;-78
2021/12/07 00:23:57;;;;;;;51.22;20.85;;;;;;;5.99;100.00;99899.78;5058944;28;20179;-79
2021/12/07 00:26:23;;;;;;;47.40;21.47;;;;;;;5.99;100.00;99890.50;5053398;28;20206;-78
2021/12/07 00:28:50;;;;;;;54.40;22.50;;;;;;;6.01;100.00;99888.09;5036008;28;20179;-79
2021/12/07 00:31:41;;;;;;;49.97;22.63;;;;;;;6.06;100.00;99894.53;5053630;28;20175;-79
2021/12/07 00:36:44;;;;;;;46.60;21.90;;;;;;;6.16;100.00;99883.59;5053875;28;20194;-79
2021/12/07 00:39:12;;;;;;;47.45;21.17;;;;;;;6.09;100.00;99866.84;5053290;28;20186;-79
2021/12/07 00:41:38;;;;;;;53.45;22.38;;;;;;;5.97;100.00;99858.94;5053179;28;20670;-80
2021/12/07 00:44:04;;;;;;;48.55;20.77;;;;;;;6.20;100.00;99878.94;5053644;28;20205;-80
2021/12/07 00:46:31;;;;;;;43.38;19.40;;;;;;;6.22;100.00;99876.53;5035580;28;20199;-81
2021/12/07 00:48:57;;;;;;;49.50;20.63;;;;;;;6.21;100.00;99865.47;5053489;28;20559;-79
2021/12/07 00:51:23;;;;;;;49.17;20.70;;;;;;;6.20;100.00;99857.72;5053243;28;20189;-79
2021/12/07 00:53:49;;;;;;;47.53;20.30;;;;;;;6.11;100.00;99839.91;5053610;28;20210;-81
2021/12/07 00:56:15;;;;;;;45.17;19.63;;;;;;;6.29;100.00;99870.38;5053243;28;20214;-79
2021/12/07 00:58:40;;;;;;;43.08;20.80;;;;;;;6.24;100.00;99855.59;5053430;28;20195;-79
2021/12/07 01:01:12;;;;;;;46.35;20.80;;;;;;;6.39;100.00;99868.88;5052673;28;20613;-79
2021/12/07 01:03:38;;;;;;;41.97;20.25;;;;;;;6.39;100.00;99853.59;5053062;28;20164;-80
2021/12/07 01:06:25;;;;;;;51.55;22.02;;;;;;;6.30;98.95;99842.56;5053233;28;20685;-80
2021/12/07 01:25:19;;;;;;;54.97;23.10;;;;;;;6.18;100.00;99837.19;5052801;28;20238;-80
2021/12/07 01:27:48;;;;;;;50.22;21.35;;;;;;;6.24;100.00;99850.50;5052986;28;20193;-80
2021/12/07 01:38:20;;;;;;;51.17;23.85;;;;;;;6.21;100.00;99817.13;5052755;28;20159;-79
2021/12/07 01:59:47;;;;;;;65.07;24.63;;;;;;;6.29;100.00;99789.84;5052314;28;20203;-80
2021/12/07 02:02:15;;;;;;;62.13;25.70;;;;;;;6.41;100.00;99813.00;5052131;28;20171;-80
2021/12/07 02:04:41;;;;;;;63.07;27.57;;;;;;;6.46;100.00;99801.63;5051598;28;20230;-80
2021/12/07 02:07:07;;;;;;;65.53;26.42;;;;;;;6.46;100.00;99810.16;5051725;28;20198;-80
2021/12/07 02:09:35;;;;;;;58.83;25.33;;;;;;;6.50;100.00;99806.25;5051730;28;20247;-78
2021/12/07 02:12:02;;;;;;;61.65;27.52;;;;;;;6.42;100.00;99781.75;5051711;28;20176;-80
2021/12/07 02:14:30;;;;;;;55.80;26.35;;;;;;;6.53;100.00;99791.25;5051909;28;20175;-78
2021/12/07 02:17:06;;;;;;;62.13;26.52;;;;;;;6.58;100.00;99787.50;5051673;28;20655;-79
2021/12/07 02:19:31;;;;;;;56.10;27.00;;;;;;;6.56;100.00;99794.06;5052323;28;20171;-78
2021/12/07 02:21:58;;;;;;;55.55;25.33;;;;;;;6.56;100.00;99800.81;5051735;28;20179;-79
2021/12/07 02:24:25;;;;;;;48.97;20.85;;;;;;;6.47;98.93;99788.13;5051672;28;20179;-78
2021/12/07 02:26:51;;;;;;;52.57;21.87;;;;;;;6.49;98.36;99804.47;5051584;28;20179;-78
2021/12/07 02:29:18;;;;;;;53.08;21.70;;;;;;;6.45;98.99;99800.72;5051462;28;20684;-79
2021/12/07 02:31:44;;;;;;;49.92;21.55;;;;;;;6.43;98.93;99801.34;5051813;28;20171;-79
2021/12/07 02:34:10;;;;;;;51.92;22.73;;;;;;;6.43;98.96;99796.25;5033777;28;20183;-79
2021/12/07 02:36:36;;;;;;;44.88;20.05;;;;;;;6.45;98.94;99798.19;5051836;28;20175;-80
2021/12/07 02:39:04;;;;;;;42.72;20.08;;;;;;;6.39;99.22;99781.47;5051123;28;20186;-80
2021/12/07 02:41:30;;;;;;;48.07;22.33;;;;;;;6.46;99.84;99781.25;5051347;28;20179;-78
2021/12/07 02:43:55;;;;;;;52.10;22.60;;;;;;;6.52;100.00;99797.09;5033509;28;20181;-79
2021/12/07 02:46:21;;;;;;;52.28;22.92;;;;;;;6.44;99.94;99763.28;5051232;28;20209;-79
2021/12/07 02:48:46;;;;;;;46.97;20.25;;;;;;;6.54;100.00;99779.41;5051408;28;20185;-79
2021/12/07 02:51:12;;;;;;;40.97;17.58;;;;;;;6.47;97.63;99766.13;5016793;28;20175;-80
2021/12/07 02:53:37;;;;;;;37.95;18.85;;;;;;;6.48;98.31;99767.94;5033515;28;20210;-79
2021/12/07 02:56:05;;;;;;;45.92;20.15;;;;;;;6.49;99.84;99773.91;5051036;28;20179;-80
2021/12/07 02:58:30;;;;;;;55.33;21.20;;;;;;;6.49;98.75;99766.28;5051528;28;20217;-78
2021/12/07 03:01:07;;;;;;;42.03;19.65;;;;;;;6.46;99.03;99749.06;5033281;28;20610;-79
2021/12/07 03:03:38;;;;;;;43.80;17.65;;;;;;;6.54;98.50;99761.59;5051281;28;20657;-78
2021/12/07 03:06:32;;;;;;;36.97;16.90;;;;;;;6.44;99.18;99747.13;5050905;28;20211;-79
2021/12/07 03:28:06;;;;;;;33.23;14.57;;;;;;;5.93;98.12;99795.84;5054840;28;20175;-79
2021/12/07 03:30:31;;;;;;;28.70;13.23;;;;;;;5.79;97.96;99764.00;5054969;28;20565;-80
2021/12/07 03:32:57;;;;;;;33.67;15.20;;;;;;;5.80;98.90;99767.44;5055049;28;20206;-79
2021/12/07 03:35:22;;;;;;;33.10;13.50;;;;;;;5.83;99.75;99762.63;5054825;28;20167;-80
2021/12/07 03:37:48;;;;;;;37.20;14.80;;;;;;;5.79;100.00;99751.28;5054876;28;20185;-80
2021/12/07 03:40:14;;;;;;;33.97;14.18;;;;;;;5.85;100.00;99760.22;5054984;28;20184;-79
2021/12/07 03:42:40;;;;;;;34.07;14.30;;;;;;;5.87;98.67;99762.16;5055632;28;20228;-79
2021/12/07 03:45:07;;;;;;;36.17;15.60;;;;;;;6.04;99.62;99766.31;5054586;28;20198;-78
2021/12/07 03:47:33;;;;;;;35.47;15.73;;;;;;;6.16;99.01;99756.41;5054268;28;20175;-79
2021/12/07 03:49:58;;;;;;;39.13;15.73;;;;;;;6.06;97.97;99743.59;5054430;28;20282;-79
2021/12/07 03:52:24;;;;;;;34.03;16.13;;;;;;;6.10;97.24;99748.19;5054267;28;20571;-79
2021/12/07 03:54:49;;;;;;;33.38;16.83;;;;;;;6.19;96.43;99760.13;5036237;28;20179;-79
2021/12/07 03:57:15;;;;;;;39.00;16.17;;;;;;;6.20;96.55;99771.22;5054066;28;20221;-80
2021/12/07 03:59:40;;;;;;;36.67;15.43;;;;;;;6.19;96.05;99767.75;5054050;28;20191;-79
2021/12/07 04:02:07;;;;;;;33.08;15.82;;;;;;;6.20;95.37;99764.47;5054714;28;20184;-79
2021/12/07 04:04:34;;;;;;;36.67;17.13;;;;;;;6.28;97.09;99765.19;5053978;28;20718;-78
2021/12/07 04:06:59;;;;;;;43.00;16.90;;;;;;;6.29;95.99;99766.06;5054130;28;20188;-79
2021/12/07 04:09:25;;;;;;;38.65;15.80;;;;;;;6.20;94.48;99753.41;5054039;28;20221;-79
2021/12/07 04:11:50;;;;;;;40.85;15.95;;;;;;;6.07;94.25;99731.00;5054000;28;20562;-79
2021/12/07 04:14:16;;;;;;;42.10;16.30;;;;;;;6.19;95.11;99749.94;5035940;28;20278;-79
2021/12/07 04:16:41;;;;;;;40.20;15.80;;;;;;;6.23;94.52;99739.34;5054016;28;20217;-80
2021/12/07 04:19:07;;;;;;;32.28;15.10;;;;;;;6.20;93.65;99736.50;5036223;28;20183;-79
2021/12/07 04:21:32;;;;;;;32.13;14.85;;;;;;;6.25;94.09;99742.00;5053761;28;20679;-80
2021/12/07 04:23:58;;;;;;;38.30;17.65;;;;;;;6.33;93.74;99753.78;5053756;28;20225;-80
2021/12/07 04:26:25;;;;;;;32.90;16.08;;;;;;;6.29;95.33;99743.19;5054030;28;20195;-80
2021/12/07 04:28:51;;;;;;;37.95;17.25;;;;;;;6.32;95.02;99743.47;5054131;28;20277;-79
2021/12/07 04:31:16;;;;;;;36.33;17.20;;;;;;;6.39;94.77;99761.09;5036162;28;20255;-81
2021/12/07 04:33:42;;;;;;;38.92;16.65;;;;;;;6.27;93.40;99739.63;5054381;28;20186;-83
2021/12/07 04:36:10;;;;;;;36.92;18.10;;;;;;;6.33;93.45;99758.00;5052926;28;20226;-81
2021/12/07 04:38:36;;;;;;;40.15;18.90;;;;;;;6.33;93.13;99763.09;5054511;28;20188;-82
2021/12/07 04:41:01;;;;;;;38.55;16.98;;;;;;;6.32;93.70;99769.78;5054559;28;20214;-81
2021/12/07 04:43:27;;;;;;;35.17;17.13;;;;;;;6.31;93.15;99769.66;5054196;28;20176;-80
2021/12/07 04:46:17;;;;;;;39.38;18.20;;;;;;;6.32;93.83;99772.34;5054371;28;20199;-80
2021/12/07 04:59:36;;;;;;;46.50;21.17;;;;;;;6.38;92.24;99770.38;5055045;28;20226;-80
2021/12/07 05:02:03;;;;;;;51.97;22.17;;;;;;;6.28;92.83;99762.63;5035361;28;20616;-80
2021/12/07 05:04:32;;;;;;;40.03;21.25;;;;;;;6.38;92.17;99782.19;5053253;28;20229;-81
2021/12/07 05:07:13;;;;;;;39.47;19.17;;;;;;;6.34;92.10;99790.31;5054282;28;20183;-80
2021/12/07 05:10:29;;;;;;;36.42;20.27;;;;;;;6.31;94.31;99759.50;5053965;28;20197;-79
2021/12/07 05:12:37;;;;;;;44.03;20.40;;;;;;;6.45;93.89;99782.03;5043016;28;20179;-79
2021/12/07 05:15:16;;;;;;;46.20;21.35;;;;;;;6.41;94.91;99757.03;5054398;28;20187;-80
2021/12/07 05:39:27;;;;;;;66.75;31.40;;;;;;;6.47;90.41;99742.34;5077082;28;20214;-79
2021/12/07 05:41:52;;;;;;;65.03;28.88;;;;;;;6.34;90.75;99722.50;5065794;28;20650;-79
2021/12/07 05:44:18;;;;;;;56.25;26.10;;;;;;;6.52;90.21;99733.47;5048517;28;20186;-79
2021/12/07 05:46:43;;;;;;;37.67;20.42;;;;;;;6.34;91.33;99708.88;5066003;28;20211;-77
2021/12/07 05:49:08;;;;;;;34.92;17.40;;;;;;;6.61;91.42;99758.88;5043840;28;20175;-80
2021/12/07 05:51:34;;;;;;;41.00;19.35;;;;;;;6.62;91.99;99759.00;5053879;28;20553;-78
2021/12/07 05:53:59;;;;;;;101.97;38.47;;;;;;;6.64;92.81;99752.41;5034925;28;20183;-79
2021/12/07 05:56:25;;;;;;;159.98;53.20;;;;;;;6.57;93.67;99726.25;5052793;28;20179;-80
2021/12/07 05:58:50;;;;;;;125.93;46.88;;;;;;;6.40;94.22;99691.66;5034092;28;20199;-80
2021/12/07 06:01:16;;;;;;;63.42;25.95;;;;;;;6.72;93.93;99743.81;5052230;28;20252;-81
2021/12/07 06:03:41;;;;;;;50.65;20.33;;;;;;;6.69;93.16;99742.66;5052008;28;20547;-80
2021/12/07 06:06:07;;;;;;;35.33;17.85;;;;;;;6.75;91.31;99755.94;5052398;28;20195;-79
2021/12/07 06:08:32;;;;;;;74.15;32.20;;;;;;;6.77;91.51;99748.44;5052261;28;20203;-78
2021/12/07 06:10:58;;;;;;;61.78;24.38;;;;;;;6.75;92.39;99740.66;5053005;28;20174;-79
2021/12/07 06:13:23;;;;;;;33.40;15.98;;;;;;;6.74;92.23;99728.69;5052522;28;20171;-78
2021/12/07 06:15:49;;;;;;;38.38;15.20;;;;;;;6.88;93.52;99755.41;5052084;28;20171;-79
2021/12/07 06:18:14;;;;;;;27.20;14.57;;;;;;;7.20;100.00;99724.31;5050285;28;20179;-78
2021/12/07 06:20:41;;;;;;;41.78;17.65;;;;;;;7.37;91.74;99716.47;5051469;28;20549;-80
2021/12/07 06:23:09;;;;;;;32.30;16.20;;;;;;;7.52;89.44;99730.56;5051711;28;20175;-82
2021/12/07 06:25:35;;;;;;;35.70;16.35;;;;;;;7.30;89.73;99730.34;5051694;28;20198;-81
2021/12/07 06:28:00;;;;;;;33.50;17.17;;;;;;;7.35;90.38;99744.38;5051555;28;20289;-80
2021/12/07 06:30:26;;;;;;;33.72;18.48;;;;;;;7.25;90.79;99740.88;5051860;28;20167;-81
2021/12/07 06:32:51;;;;;;;36.03;17.52;;;;;;;7.22;91.09;99745.69;5051728;28;20206;-80
2021/12/07 06:35:16;;;;;;;33.22;16.65;;;;;;;7.19;90.90;99738.66;5051246;28;20171;-83
2021/12/07 06:37:42;;;;;;;34.67;18.20;;;;;;;7.10;89.38;99742.94;5051124;28;20175;-81
2021/12/07 06:40:10;;;;;;;28.95;14.00;;;;;;;7.04;88.27;99744.94;5051333;28;20167;-81
2021/12/07 06:42:38;;;;;;;25.92;13.23;;;;;;;6.90;87.89;99720.78;5051392;28;20175;-80
2021/12/07 06:45:08;;;;;;;26.75;13.50;;;;;;;6.98;89.36;99735.13;5051881;28;20203;-80
2021/12/07 06:47:34;;;;;;;25.88;12.75;;;;;;;7.00;88.26;99761.59;5051720;28;20167;-81
2021/12/07 06:50:04;;;;;;;21.83;13.20;;;;;;;6.90;88.24;99761.53;5051582;28;20193;-81
2021/12/07 06:52:30;;;;;;;28.63;14.85;;;;;;;6.95;89.42;99745.03;5051369;28;20555;-81
2021/12/07 06:54:57;;;;;;;29.60;15.95;;;;;;;6.98;88.99;99729.09;5051245;28;20712;-82
2021/12/07 06:57:23;;;;;;;33.05;17.90;;;;;;;6.91;89.82;99715.81;5051536;28;20654;-80
2021/12/07 06:59:48;;;;;;;32.22;17.27;;;;;;;6.99;90.27;99742.00;5052877;28;20201;-81
2021/12/07 07:02:14;;;;;;;44.97;23.98;;;;;;;7.02;88.62;99764.28;5055766;28;20170;-80
2021/12/07 07:04:39;;;;;;;38.78;20.60;;;;;;;6.92;88.92;99732.91;5037123;28;20714;-81
2021/12/07 07:07:05;;;;;;;34.03;18.42;;;;;;;6.80;90.20;99697.81;5055381;28;20213;-79
2021/12/07 07:09:30;;;;;;;39.17;18.08;;;;;;;7.03;90.53;99738.06;5037562;28;20631;-79
2021/12/07 07:11:56;;;;;;;40.00;21.20;;;;;;;7.03;89.13;99744.03;5055193;28;20171;-80
2021/12/07 07:14:21;;;;;;;29.23;15.60;;;;;;;7.00;88.08;99725.06;5037849;28;20166;-80
2021/12/07 07:16:47;;;;;;;29.30;15.65;;;;;;;7.02;88.42;99739.72;5055495;28;20179;-79
2021/12/07 07:19:13;;;;;;;26.60;14.10;;;;;;;7.05;89.04;99745.09;5055853;28;20171;-80
2021/12/07 07:21:39;;;;;;;26.73;14.30;;;;;;;6.92;90.33;99698.91;5060491;28;20187;-81
2021/12/07 07:24:04;;;;;;;27.70;15.20;;;;;;;6.98;90.50;99704.56;5060043;28;20734;-79
2021/12/07 07:26:30;;;;;;;25.58;14.18;;;;;;;7.03;89.30;99716.03;5059975;28;20289;-81
2021/12/07 07:28:56;;;;;;;33.78;18.30;;;;;;;7.09;88.23;99723.31;5058858;28;20650;-81
2021/12/07 07:31:21;;;;;;;27.05;15.48;;;;;;;7.04;88.78;99724.56;5058542;28;20771;-80
2021/12/07 07:33:47;;;;;;;27.85;14.57;;;;;;;7.16;89.61;99731.66;5059041;28;20179;-80
2021/12/07 07:36:12;;;;;;;47.03;20.77;;;;;;;7.14;90.40;99730.63;5059872;28;20175;-80
2021/12/07 07:38:38;;;;;;;36.35;18.13;;;;;;;7.05;89.68;99695.81;5058665;28;20205;-82
2021/12/07 07:41:03;;;;;;;24.85;13.60;;;;;;;7.20;89.71;99722.66;5059690;28;20175;-82
2021/12/07 07:43:29;;;;;;;51.13;23.73;;;;;;;7.12;88.96;99715.97;5057895;28;20661;-81
2021/12/07 07:45:55;;;;;;;37.35;18.25;;;;;;;7.24;87.62;99736.53;5054247;28;20697;-80
2021/12/07 07:48:22;;;;;;;28.55;14.40;;;;;;;7.22;87.63;99718.56;5053820;28;20206;-80
2021/12/07 07:50:49;;;;;;;27.17;15.00;;;;;;;7.22;87.25;99712.56;5054316;28;20228;-82
2021/12/07 07:53:15;;;;;;;27.80;14.32;;;;;;;7.21;87.03;99710.78;5054352;28;20175;-80
2021/12/07 07:55:42;;;;;;;28.60;15.57;;;;;;;7.20;87.54;99722.66;5054574;28;20191;-81
2021/12/07 07:58:09;;;;;;;21.98;12.52;;;;;;;7.20;87.07;99726.84;5054278;28;20570;-80
2021/12/07 08:00:35;;;;;;;21.10;11.38;;;;;;;7.14;86.35;99743.38;5036298;28;20317;-81
2021/12/07 08:03:00;;;;;;;37.28;18.63;;;;;;;7.04;87.05;99739.84;5054150;28;20710;-79
2021/12/07 08:05:26;;;;;;;42.63;22.80;;;;;;;7.03;87.91;99763.53;5054340;28;20714;-80
2021/12/07 08:07:51;;;;;;;34.97;18.40;;;;;;;6.84;89.19;99750.78;5054489;28;20186;-82
2021/12/07 08:10:22;;;;;;;40.13;21.83;;;;;;;6.99;89.59;99779.31;5053560;28;20294;-80
2021/12/07 08:12:49;;;;;;;27.75;14.98;;;;;;;6.85;88.98;99739.84;5054004;28;20174;-80
2021/12/07 08:15:15;;;;;;;23.50;14.52;;;;;;;6.93;89.04;99770.34;5054081;28;20566;-80
2021/12/07 08:17:41;;;;;;;29.83;15.05;;;;;;;6.78;89.30;99750.22;5054419;28;20181;-80
2021/12/07 08:20:07;;;;;;;27.73;14.18;;;;;;;6.76;90.28;99736.47;5054491;28;20263;-80
2021/12/07 08:22:33;;;;;;;25.75;14.10;;;;;;;6.93;90.08;99731.25;5054606;28;20175;-81
2021/12/07 08:24:58;;;;;;;28.10;14.00;;;;;;;7.03;91.40;99736.41;5054554;28;20210;-81
2021/12/07 08:27:25;;;;;;;22.67;12.32;;;;;;;7.02;90.82;99734.63;5054572;28;20174;-83
2021/12/07 08:29:51;;;;;;;22.95;12.48;;;;;;;7.02;90.44;99721.88;5054069;28;20183;-81
2021/12/07 08:32:16;;;;;;;28.40;14.43;;;;;;;7.21;89.87;99723.53;5054008;28;20175;-80
2021/12/07 08:34:41;;;;;;;27.83;13.93;;;;;;;7.28;89.06;99715.66;5054167;28;20672;-80
2021/12/07 08:41:06;;;;;;;19.88;11.23;;;;;;;7.38;87.55;99670.75;5053899;28;20182;-80
2021/12/07 08:43:34;;;;;;;22.90;12.23;;;;;;;7.45;87.75;99682.38;5053675;28;20205;-81
2021/12/07 08:46:01;;;;;;;19.23;10.38;;;;;;;7.51;87.94;99679.47;5053544;28;20195;-79
2021/12/07 08:48:27;;;;;;;21.17;10.75;;;;;;;7.52;88.06;99679.59;5053622;28;20266;-83
2021/12/07 08:50:53;;;;;;;18.00;10.68;;;;;;;7.58;88.38;99681.78;5053570;28;20472;-78
2021/12/07 08:53:21;;;;;;;17.60;9.50;;;;;;;7.59;87.46;99687.00;5053146;28;20246;-81
2021/12/07 09:01:21;;;;;;;20.95;11.52;;;;;;;7.60;88.11;99693.91;5053622;28;20241;-78
2021/12/07 09:03:49;;;;;;;20.52;11.35;;;;;;;7.42;89.10;99712.69;5053258;28;20681;-80
2021/12/07 09:06:15;;;;;;;25.17;10.80;;;;;;;7.52;90.27;99686.34;5053011;28;20541;-78
2021/12/07 09:08:41;;;;;;;28.75;14.15;;;;;;;7.51;89.90;99667.63;5035162;28;20176;-77
2021/12/07 09:11:08;;;;;;;23.55;11.77;;;;;;;7.63;89.88;99689.06;5053295;28;20225;-82
2021/12/07 09:13:35;;;;;;;21.48;10.98;;;;;;;7.63;89.20;99678.88;5035335;28;20669;-83
2021/12/07 09:16:00;;;;;;;17.58;9.57;;;;;;;7.56;88.70;99651.03;5052989;28;20175;-81
2021/12/07 09:18:26;;;;;;;22.60;10.63;;;;;;;7.77;88.43;99658.75;5052968;28;20233;-81
2021/12/07 09:20:52;;;;;;;19.75;10.30;;;;;;;7.85;88.78;99671.41;5053230;28;20228;-80
2021/12/07 09:23:17;;;;;;;26.83;11.43;;;;;;;7.75;87.67;99635.66;5053252;28;20228;-79
2021/12/07 09:25:43;;;;;;;19.48;11.15;;;;;;;7.86;87.48;99641.69;5053034;28;20207;-78
2021/12/07 09:28:10;;;;;;;21.13;10.85;;;;;;;7.75;86.80;99601.63;5052637;28;20645;-79
2021/12/07 09:30:37;;;;;;;19.83;10.40;;;;;;;7.64;86.69;99576.13;5034812;28;20183;-82
2021/12/07 09:33:03;;;;;;;19.15;9.68;;;;;;;8.03;86.94;99643.13;5052696;28;20186;-82
2021/12/07 09:35:28;;;;;;;23.27;11.38;;;;;;;8.07;87.01;99642.63;5053028;28;20180;-80
2021/12/07 09:37:54;;;;;;;20.83;10.50;;;;;;;7.98;85.98;99622.34;5052421;28;20186;-78
2021/12/07 09:40:23;;;;;;;17.38;9.60;;;;;;;8.00;86.04;99625.88;5052515;28;20175;-79
2021/12/07 09:42:50;;;;;;;23.40;11.82;;;;;;;8.10;87.00;99659.09;5052314;28;20630;-81
2021/12/07 09:45:16;;;;;;;19.92;10.48;;;;;;;8.13;86.36;99653.34;5052282;28;20646;-77
2021/12/07 09:47:42;;;;;;;23.10;11.40;;;;;;;8.11;85.39;99639.56;5052311;28;20189;-79
2021/12/07 09:50:12;;;;;;;19.40;10.23;;;;;;;8.25;85.63;99671.31;5052304;28;20254;-79
2021/12/07 09:52:38;;;;;;;18.23;10.23;;;;;;;8.25;85.88;99668.78;5034677;28;20182;-78
2021/12/07 09:55:04;;;;;;;19.42;10.13;;;;;;;8.23;84.92;99652.47;5052249;28;20611;-78
2021/12/07 09:57:30;;;;;;;27.60;14.15;;;;;;;8.27;84.22;99670.69;5052221;28;20176;-78
2021/12/07 09:59:56;;;;;;;35.80;16.30;;;;;;;8.20;84.14;99668.41;5052136;28;20230;-79
2021/12/07 10:02:22;;;;;;;33.00;16.55;;;;;;;8.23;84.29;99660.13;5052334;28;20207;-77
2021/12/07 10:04:47;;;;;;;27.40;14.98;;;;;;;8.13;84.94;99644.78;5051576;28;20258;-76
2021/12/07 10:07:13;;;;;;;36.30;18.90;;;;;;;8.18;83.58;99646.94;5052553;28;20271;-78
2021/12/07 10:09:39;;;;;;;35.47;18.27;;;;;;;8.27;83.14;99657.94;5052187;28;20639;-81
2021/12/07 10:12:06;;;;;;;32.45;17.77;;;;;;;8.06;84.69;99628.94;5052176;28;20172;-82
2021/12/07 10:14:40;;;;;;;38.83;18.50;;;;;;;8.27;85.72;99646.84;5034774;28;20320;-79
2021/12/07 10:17:09;;;;;;;31.35;17.00;;;;;;;8.31;85.57;99644.66;5067708;28;20174;-78
2021/12/07 10:19:38;;;;;;;29.25;14.23;;;;;;;8.33;81.90;99632.03;5059164;28;20175;-79
2021/12/07 10:22:08;;;;;;;30.17;15.38;;;;;;;8.35;82.07;99633.06;5052608;28;20171;-82
2021/12/07 10:24:42;;;;;;;21.90;12.10;;;;;;;8.27;81.87;99636.63;5052381;28;20175;-78
2021/12/07 10:27:08;;;;;;;26.38;12.88;;;;;;;8.26;82.25;99632.31;5053267;28;20258;-80
2021/12/07 10:29:35;;;;;;;20.20;10.82;;;;;;;8.25;80.87;99616.06;5053345;28;20741;-81
2021/12/07 10:32:05;;;;;;;26.80;12.82;;;;;;;8.16;82.39;99617.88;5053080;28;20313;-79
2021/12/07 10:34:37;;;;;;;27.65;12.93;;;;;;;8.21;82.93;99621.69;5054635;28;20698;-80
2021/12/07 10:37:09;;;;;;;29.02;13.32;;;;;;;8.22;82.79;99622.59;5057070;28;20159;-76
2021/12/07 10:39:42;;;;;;;42.75;23.77;;;;;;;8.19;83.53;99607.00;5053357;28;20597;-80
2021/12/07 10:42:32;;;;;;;30.98;19.40;;;;;;;8.06;84.43;99572.81;5058181;28;20638;-77
2021/12/07 10:45:08;;;;;;;32.60;17.20;;;;;;;8.10;83.42;99582.53;5056908;28;20705;-83
2021/12/07 10:47:34;;;;;;;27.52;15.85;;;;;;;8.18;84.93;99603.56;5041506;28;20253;-81
2021/12/07 10:50:02;;;;;;;29.40;16.60;;;;;;;7.87;84.62;99595.00;5062817;28;20205;-81
2021/12/07 10:52:32;;;;;;;30.52;17.13;;;;;;;8.08;84.08;99622.34;5060485;28;20251;-79
2021/12/07 10:55:10;;;;;;;34.53;17.25;;;;;;;8.09;84.50;99615.56;5059362;28;20647;-81
2021/12/07 10:57:55;;;;;;;31.65;16.88;;;;;;;8.19;85.59;99613.00;5062442;28;20229;-81
2021/12/07 11:00:28;;;;;;;26.15;15.02;;;;;;;8.27;85.67;99612.00;5051575;28;20175;-80
2021/12/07 11:03:10;;;;;;;32.90;15.88;;;;;;;8.21;85.48;99602.94;5047497;28;20553;-80
2021/12/07 11:05:40;;;;;;;24.77;14.10;;;;;;;8.21;85.89;99601.28;5063597;28;20277;-81
2021/12/07 11:08:09;;;;;;;26.40;15.38;;;;;;;8.28;86.76;99607.78;5055813;28;20206;-80
2021/12/07 11:10:38;;;;;;;30.77;17.05;;;;;;;8.31;86.56;99608.03;5040317;28;20179;-82
2021/12/07 11:15:50;;;;;;;28.30;15.85;;;;;;;8.33;85.93;99592.09;5052505;28;20569;-83
2021/12/07 11:18:17;;;;;;;27.80;16.17;;;;;;;8.40;85.69;99587.53;5059845;28;20178;-78
2021/12/07 11:20:43;;;;;;;28.27;15.70;;;;;;;8.36;85.79;99562.50;5057473;28;20229;-82
2021/12/07 11:23:23;;;;;;;28.60;16.02;;;;;;;8.48;85.51;99582.28;5035708;28;20171;-80
2021/12/07 11:31:38;;;;;;;32.60;15.13;;;;;;;8.47;84.78;99579.59;5051601;28;20179;-77
2021/12/07 11:34:22;;;;;;;27.27;15.32;;;;;;;8.46;84.63;99568.50;5051299;28;20174;-82
2021/12/07 11:36:49;;;;;;;31.60;17.58;;;;;;;8.40;85.55;99562.88;5051353;28;20181;-78
2021/12/07 11:39:36;;;;;;;33.63;17.55;;;;;;;8.34;85.38;99540.25;5051081;28;20179;-79
2021/12/07 11:42:20;;;;;;;32.10;17.88;;;;;;;8.44;86.58;99548.69;5050823;28;20174;-83
2021/12/07 11:45:01;;;;;;;32.60;19.33;;;;;;;8.47;86.12;99536.19;5050852;28;20229;-78
2021/12/07 11:47:35;;;;;;;25.90;15.82;;;;;;;8.44;85.82;99533.38;5054667;28;20163;-80
2021/12/07 11:50:11;;;;;;;24.05;13.98;;;;;;;8.57;85.52;99559.16;5036241;28;20616;-78
2021/12/07 11:52:37;;;;;;;29.70;15.98;;;;;;;8.56;85.36;99560.78;5054212;28;20167;-80
2021/12/07 11:55:04;;;;;;;34.97;15.00;;;;;;;8.55;86.26;99579.44;5054622;28;20650;-77
2021/12/07 11:57:29;;;;;;;29.80;16.55;;;;;;;8.24;84.84;99524.97;5054380;28;20195;-79
2021/12/07 11:59:55;;;;;;;34.33;17.20;;;;;;;8.52;84.84;99573.22;5053979;28;20274;-77
2021/12/07 12:02:22;;;;;;;30.73;16.67;;;;;;;8.51;85.35;99569.78;5036464;28;20183;-79
2021/12/07 12:04:48;;;;;;;30.70;17.48;;;;;;;8.52;86.13;99571.53;5035922;28;20273;-79
2021/12/07 12:07:14;;;;;;;42.47;22.88;;;;;;;8.47;86.98;99548.94;5054238;28;20642;-77
2021/12/07 12:09:47;;;;;;;39.83;21.63;;;;;;;8.45;86.13;99566.72;5054190;28;20265;-78
2021/12/07 12:12:49;;;;;;;40.70;21.88;;;;;;;8.46;85.84;99568.50;5053710;28;20171;-78
2021/12/07 12:15:24;;;;;;;36.05;19.40;;;;;;;8.48;86.40;99566.06;5053702;28;20187;-77
2021/12/07 12:18:26;;;;;;;37.78;19.88;;;;;;;8.48;85.94;99569.53;5053745;28;20262;-81
2021/12/07 12:21:01;;;;;;;40.15;20.10;;;;;;;8.30;85.13;99534.81;5053650;28;20633;-80
2021/12/07 12:24:06;;;;;;;41.78;21.05;;;;;;;8.49;85.59;99565.31;5053929;28;20237;-80
2021/12/07 12:26:34;;;;;;;42.92;22.55;;;;;;;8.51;85.53;99572.31;4956750;28;20280;-77
2021/12/07 12:29:01;;;;;;;40.95;21.38;;;;;;;8.48;86.46;99566.97;5041318;28;20613;-79
2021/12/07 12:31:46;;;;;;;35.75;19.05;;;;;;;8.48;85.87;99569.53;5054978;28;20167;-79
2021/12/07 12:34:22;;;;;;;36.42;19.85;;;;;;;8.37;86.51;99557.50;5056176;28;20167;-80
2021/12/07 12:37:10;;;;;;;38.75;19.30;;;;;;;8.45;85.82;99574.38;5039339;28;20269;-79
2021/12/07 12:39:43;;;;;;;38.88;19.08;;;;;;;8.47;86.15;99570.28;5062974;28;20185;-82
2021/12/07 12:42:10;;;;;;;36.40;19.05;;;;;;;8.45;86.67;99566.72;5066243;28;20182;-78
2021/12/07 12:44:37;;;;;;;36.50;19.98;;;;;;;8.41;86.45;99562.13;5076171;28;20159;-78
2021/12/07 12:47:05;;;;;;;37.65;19.65;;;;;;;8.33;87.19;99552.91;5077841;28;20210;-81
2021/12/07 12:49:42;;;;;;;30.50;17.45;;;;;;;8.42;86.83;99571.56;5079956;28;20152;-82
2021/12/07 12:52:10;;;;;;;35.10;16.75;;;;;;;8.37;88.15;99557.50;5057699;28;20190;-79
2021/12/07 12:54:43;;;;;;;41.00;19.27;;;;;;;8.36;87.81;99576.13;5067353;28;20172;-79
2021/12/07 12:57:15;;;;;;;38.92;19.05;;;;;;;8.24;87.24;99549.59;5064246;28;20207;-81
2021/12/07 12:59:44;;;;;;;31.20;19.08;;;;;;;8.09;87.62;99523.72;5047385;28;20194;-82
2021/12/07 13:02:11;;;;;;;32.47;18.85;;;;;;;8.36;88.16;99571.03;5054349;28;20249;-81
2021/12/07 13:04:37;;;;;;;37.22;19.90;;;;;;;8.38;86.03;99586.47;5053526;28;20223;-81
2021/12/07 13:09:45;;;;;;;49.95;26.00;;;;;;;8.20;86.00;99571.44;5052844;28;20191;-81
2021/12/07 13:12:10;;;;;;;47.00;24.92;;;;;;;8.36;87.28;99590.56;5052954;28;20171;-81
2021/12/07 13:14:40;;;;;;;44.20;23.27;;;;;;;8.33;88.26;99594.63;5053402;28;20175;-82
2021/12/07 13:17:31;;;;;;;37.10;20.92;;;;;;;8.38;88.15;99594.13;5052779;28;20167;-83
2021/12/07 13:20:24;;;;;;;47.65;22.33;;;;;;;8.36;87.81;99595.66;5034955;28;20171;-85
2021/12/07 13:23:09;;;;;;;33.15;17.55;;;;;;;8.16;87.39;99578.69;5035116;28;20213;-83
2021/12/07 13:25:42;;;;;;;23.73;13.68;;;;;;;8.18;86.54;99602.69;5052625;28;20199;-82
2021/12/07 13:28:25;;;;;;;22.42;12.50;;;;;;;8.07;87.49;99607.81;5052612;28;20159;-82
2021/12/07 13:31:12;;;;;;;19.27;12.63;;;;;;;8.12;87.48;99605.63;5052600;28;20171;-79